createdAt,value
2022-10-05T00:00:26.714Z,16.00
2022-10-05T00:04:33.380Z,15.90
2022-10-05T00:08:40.226Z,15.90
2022-10-05T00:12:48.035Z,15.90
2022-10-05T00:16:56.216Z,15.80
2022-10-05T00:21:09.020Z,15.80
2022-10-05T00:25:19.134Z,15.80
2022-10-05T00:29:25.872Z,15.80
2022-10-05T00:33:32.551Z,15.80
2022-10-05T00:37:40.000Z,15.80
2022-10-05T00:42:12.317Z,15.80
2022-10-05T00:46:27.161Z,15.80
2022-10-05T00:51:12.088Z,15.80
2022-10-05T00:55:40.055Z,15.70
2022-10-05T01:00:05.965Z,15.80
2022-10-05T01:04:38.235Z,15.80
2022-10-05T01:09:09.461Z,15.80
2022-10-05T01:13:25.133Z,15.80
2022-10-05T01:17:51.714Z,15.80
2022-10-05T01:22:08.888Z,15.80
2022-10-05T01:26:46.616Z,15.80
2022-10-05T01:31:15.652Z,15.80
2022-10-05T01:35:33.487Z,15.80
2022-10-05T01:40:17.721Z,15.70
2022-10-05T01:44:44.457Z,15.70
2022-10-05T01:49:11.883Z,15.70
2022-10-05T01:53:25.114Z,15.70
2022-10-05T01:57:50.432Z,15.70
2022-10-05T02:02:08.181Z,15.60
2022-10-05T02:06:22.281Z,15.60
2022-10-05T02:10:42.218Z,15.60
2022-10-05T02:14:54.882Z,15.50
2022-10-05T02:19:21.525Z,15.50
2022-10-05T02:23:35.069Z,15.40
2022-10-05T02:27:52.693Z,15.40
2022-10-05T02:32:04.068Z,15.40
2022-10-05T02:36:18.048Z,15.30
2022-10-05T02:40:33.794Z,15.30
2022-10-05T02:45:02.402Z,15.20
2022-10-05T02:49:34.098Z,15.20
2022-10-05T02:53:55.842Z,15.20
2022-10-05T02:58:23.403Z,15.20
2022-10-05T03:02:52.951Z,15.20
2022-10-05T03:07:29.589Z,15.10
2022-10-05T03:12:04.331Z,15.20
2022-10-05T03:16:35.836Z,15.10
2022-10-05T03:21:20.299Z,15.10
2022-10-05T03:25:42.322Z,15.10
2022-10-05T03:30:04.166Z,15.00
2022-10-05T03:34:20.329Z,15.00
2022-10-05T03:38:48.692Z,15.00
2022-10-05T03:43:29.547Z,14.90
2022-10-05T03:47:49.845Z,14.90
2022-10-05T03:52:05.936Z,14.90
2022-10-05T03:56:51.649Z,14.90
2022-10-05T04:01:05.445Z,15.00
2022-10-05T04:05:22.006Z,15.00
2022-10-05T04:09:42.996Z,15.00
2022-10-05T04:14:06.670Z,15.00
2022-10-05T04:18:39.745Z,15.00
2022-10-05T04:23:23.776Z,15.10
2022-10-05T04:27:41.915Z,15.10
2022-10-05T04:31:54.689Z,15.20
2022-10-05T04:36:22.241Z,15.30
2022-10-05T04:40:41.133Z,15.20
2022-10-05T04:45:08.660Z,15.20
2022-10-05T04:49:24.864Z,15.20
2022-10-05T04:53:54.041Z,15.20
2022-10-05T04:58:44.505Z,15.20
2022-10-05T05:03:06.588Z,15.30
2022-10-05T05:07:30.155Z,15.20
2022-10-05T05:12:18.400Z,15.20
2022-10-05T05:16:45.143Z,15.20
2022-10-05T05:20:58.606Z,15.20
2022-10-05T05:25:26.328Z,15.30
2022-10-05T05:29:50.845Z,15.30
2022-10-05T05:34:20.054Z,15.30
2022-10-05T05:39:11.289Z,15.30
2022-10-05T05:43:30.709Z,15.30
2022-10-05T05:47:45.045Z,15.30
2022-10-05T05:52:00.252Z,15.30
2022-10-05T05:56:13.372Z,15.50
2022-10-05T06:00:32.518Z,15.20
2022-10-05T06:04:45.121Z,15.20
2022-10-05T06:08:58.510Z,15.40
2022-10-05T06:13:29.033Z,15.20
2022-10-05T06:17:58.789Z,15.30
2022-10-05T06:22:23.742Z,15.20
2022-10-05T06:27:07.409Z,15.20
2022-10-05T06:32:01.134Z,15.20
2022-10-05T06:36:49.515Z,15.20
2022-10-05T06:41:24.182Z,15.20
2022-10-05T06:45:55.164Z,15.20
2022-10-05T06:50:36.833Z,15.20
2022-10-05T06:55:04.824Z,15.30
2022-10-05T06:59:43.374Z,15.30
2022-10-05T07:04:09.556Z,15.40
2022-10-05T07:08:38.086Z,15.40
2022-10-05T07:13:09.687Z,15.40
2022-10-05T07:17:48.441Z,15.40
2022-10-05T07:26:37.326Z,15.50
2022-10-05T07:31:11.565Z,15.40
2022-10-05T07:35:42.469Z,15.50
2022-10-05T07:40:30.354Z,15.40
2022-10-05T07:44:45.545Z,15.50
2022-10-05T07:49:10.230Z,15.50
2022-10-05T07:53:43.429Z,15.60
2022-10-05T07:58:23.634Z,15.70
2022-10-05T08:02:45.409Z,15.70
2022-10-05T08:06:59.658Z,15.80
2022-10-05T08:11:17.546Z,15.80
2022-10-05T08:15:33.005Z,15.80
2022-10-05T08:19:47.523Z,15.80
2022-10-05T08:23:59.929Z,15.80
2022-10-05T08:28:26.392Z,15.80
2022-10-05T08:32:40.117Z,16.00
2022-10-05T08:37:02.541Z,16.00
2022-10-05T08:41:53.139Z,16.00
2022-10-05T08:46:14.794Z,16.10
2022-10-05T08:50:24.505Z,16.10
2022-10-05T08:54:41.785Z,16.20
2022-10-05T08:59:27.063Z,16.20
2022-10-05T09:04:16.733Z,16.40
2022-10-05T09:08:32.845Z,16.40
2022-10-05T09:13:11.401Z,16.60
2022-10-05T09:17:25.485Z,16.80
2022-10-05T09:21:42.302Z,16.90
2022-10-05T09:25:58.722Z,16.90
2022-10-05T09:30:27.047Z,17.00
2022-10-05T09:35:01.091Z,17.10
2022-10-05T09:39:39.614Z,17.20
2022-10-05T09:43:46.235Z,17.20
2022-10-05T09:48:30.799Z,17.20
2022-10-05T09:52:56.641Z,17.30
2022-10-05T09:57:21.418Z,17.40
2022-10-05T10:01:37.030Z,17.40
2022-10-05T10:05:49.633Z,17.50
2022-10-05T10:10:14.185Z,17.50
2022-10-05T10:14:49.747Z,17.50
2022-10-05T10:19:12.622Z,17.70
2022-10-05T10:23:33.635Z,17.90
2022-10-05T10:27:54.212Z,18.20
2022-10-05T10:32:22.574Z,18.50
2022-10-05T10:37:03.484Z,18.80
2022-10-05T10:41:20.942Z,19.10
2022-10-05T10:45:51.171Z,19.10
2022-10-05T10:50:28.820Z,19.20
2022-10-05T10:55:08.149Z,19.20
2022-10-05T10:59:17.809Z,19.30
2022-10-05T11:04:02.667Z,19.10
2022-10-05T11:08:24.451Z,18.90
2022-10-05T11:13:08.751Z,18.90
2022-10-05T11:17:47.465Z,19.00
2022-10-05T11:22:13.032Z,19.20
2022-10-05T11:26:30.140Z,19.20
2022-10-05T11:31:01.536Z,19.10
2022-10-05T11:35:08.249Z,19.00
2022-10-05T11:39:39.812Z,18.90
2022-10-05T11:44:07.205Z,19.00
2022-10-05T11:48:22.986Z,18.90
2022-10-05T11:52:47.796Z,19.00
2022-10-05T11:57:08.684Z,19.20
2022-10-05T12:01:31.075Z,19.30
2022-10-05T12:05:54.603Z,19.40
2022-10-05T12:10:20.109Z,19.50
2022-10-05T12:15:02.175Z,19.50
2022-10-05T12:19:36.519Z,19.60
2022-10-05T12:24:05.039Z,19.50
2022-10-05T12:28:18.592Z,19.60
2022-10-05T12:32:46.562Z,19.80
2022-10-05T12:37:11.382Z,19.90
2022-10-05T12:41:38.575Z,19.90
2022-10-05T12:46:19.658Z,19.80
2022-10-05T12:50:39.794Z,19.90
2022-10-05T12:55:13.321Z,19.90
2022-10-05T12:59:42.301Z,19.90
2022-10-05T13:03:57.837Z,19.90
2022-10-05T13:08:29.351Z,20.00
2022-10-05T13:12:46.788Z,20.20
2022-10-05T13:17:05.375Z,20.50
2022-10-05T13:21:32.965Z,20.60
2022-10-05T13:25:52.117Z,20.70
2022-10-05T13:30:13.125Z,20.80
2022-10-05T13:34:36.364Z,20.60
2022-10-05T13:38:46.847Z,20.70
2022-10-05T13:43:21.646Z,20.60
2022-10-05T13:48:00.286Z,20.50
2022-10-05T13:52:28.428Z,20.40
2022-10-05T13:56:42.181Z,20.40
2022-10-05T14:00:54.419Z,20.50
2022-10-05T14:05:21.427Z,20.50
2022-10-05T14:09:29.835Z,20.40
2022-10-05T14:13:47.542Z,20.40
2022-10-05T14:17:54.550Z,20.50
2022-10-05T14:22:11.147Z,20.60
2022-10-05T14:26:20.560Z,20.60
2022-10-05T14:30:29.262Z,20.80
2022-10-05T14:34:42.882Z,20.90
2022-10-05T14:39:01.970Z,20.90
2022-10-05T14:43:14.455Z,20.80
2022-10-05T14:47:23.334Z,20.60
2022-10-05T14:51:32.593Z,20.50
2022-10-05T14:55:57.695Z,20.40
2022-10-05T15:00:16.441Z,20.40
2022-10-05T15:04:54.376Z,20.40
2022-10-05T15:09:17.597Z,20.40
2022-10-05T15:13:32.027Z,20.40
2022-10-05T15:17:47.529Z,20.30
2022-10-05T15:22:15.367Z,20.20
2022-10-05T15:26:40.462Z,20.10
2022-10-05T15:31:02.785Z,20.00
2022-10-05T15:35:41.899Z,19.80
2022-10-05T15:40:06.585Z,19.60
2022-10-05T15:44:44.283Z,19.60
2022-10-05T15:49:18.299Z,19.50
2022-10-05T15:53:45.950Z,19.40
2022-10-05T15:58:31.345Z,19.30
2022-10-05T16:02:42.013Z,19.20
2022-10-05T16:07:16.504Z,19.00
2022-10-05T16:11:37.886Z,18.90
2022-10-05T16:15:55.141Z,18.80
2022-10-05T16:20:20.865Z,18.70
2022-10-05T16:25:15.742Z,18.70
2022-10-05T16:29:35.555Z,18.70
2022-10-05T16:33:54.417Z,18.50
2022-10-05T16:38:14.588Z,18.40
2022-10-05T16:43:02.395Z,18.40
2022-10-05T16:47:44.162Z,18.30
2022-10-05T16:51:59.153Z,18.20
2022-10-05T16:56:17.393Z,18.20
2022-10-05T17:00:51.946Z,18.20
2022-10-05T17:05:14.305Z,18.00
2022-10-05T17:09:46.820Z,17.90
2022-10-05T17:14:38.917Z,17.90
2022-10-05T17:19:09.804Z,17.90
2022-10-05T17:23:30.234Z,17.80
2022-10-05T17:28:15.037Z,17.80
2022-10-05T17:32:25.645Z,17.80
2022-10-05T17:36:48.196Z,17.70
2022-10-05T17:41:05.582Z,17.70
2022-10-05T17:45:12.229Z,17.70
2022-10-05T17:49:39.812Z,17.70
2022-10-05T17:54:06.713Z,17.60
2022-10-05T17:58:54.408Z,17.60
2022-10-05T18:03:21.250Z,17.70
2022-10-05T18:07:28.280Z,17.70
2022-10-05T18:11:39.016Z,17.70
2022-10-05T18:15:48.793Z,17.70
2022-10-05T18:20:10.817Z,17.70
2022-10-05T18:24:33.177Z,17.70
2022-10-05T18:29:15.820Z,17.60
2022-10-05T18:33:39.061Z,17.70
2022-10-05T18:38:01.880Z,17.80
2022-10-05T18:42:41.106Z,17.80
2022-10-05T18:46:53.789Z,17.90
2022-10-05T18:51:51.659Z,17.90
2022-10-05T18:56:12.517Z,17.90
2022-10-05T19:00:25.012Z,17.90
2022-10-05T19:05:03.509Z,18.00
2022-10-05T19:09:36.390Z,18.00
2022-10-05T19:13:51.021Z,18.10
2022-10-05T19:18:31.794Z,18.00
2022-10-05T19:22:44.342Z,18.10
2022-10-05T19:27:20.272Z,18.10
2022-10-05T19:32:03.000Z,18.10
2022-10-05T19:36:44.823Z,18.20
2022-10-05T19:41:42.578Z,18.20
2022-10-05T19:46:20.515Z,18.20
2022-10-05T19:50:30.835Z,18.20
2022-10-05T19:54:38.123Z,18.20
2022-10-05T19:58:44.966Z,18.20
2022-10-05T20:03:07.903Z,18.20
2022-10-05T20:07:22.811Z,18.10
2022-10-05T20:11:29.561Z,18.20
2022-10-05T20:15:56.189Z,18.20
2022-10-05T20:20:35.800Z,18.10
2022-10-05T20:24:50.866Z,18.20
2022-10-05T20:28:57.480Z,18.20
2022-10-05T20:33:10.363Z,18.10
2022-10-05T20:37:18.901Z,18.00
2022-10-05T20:41:25.531Z,16.40
2022-10-05T20:45:32.193Z,15.30
2022-10-05T20:49:41.091Z,14.90
2022-10-05T20:53:47.949Z,14.50
2022-10-05T20:57:55.306Z,14.40
2022-10-05T21:02:03.789Z,14.50
2022-10-05T21:06:11.249Z,14.40
2022-10-05T21:10:17.905Z,14.40
2022-10-05T21:14:28.004Z,14.40
2022-10-05T21:18:34.691Z,14.50
2022-10-05T21:22:41.868Z,14.50
2022-10-05T21:26:48.600Z,14.50
2022-10-05T21:30:55.462Z,14.50
2022-10-05T21:35:02.106Z,14.50
2022-10-05T21:39:08.796Z,14.50
2022-10-05T21:43:15.477Z,14.60
2022-10-05T21:47:22.167Z,14.60
2022-10-05T21:51:28.937Z,14.70
2022-10-05T21:55:39.330Z,14.60
2022-10-05T21:59:46.069Z,14.60
2022-10-05T22:03:52.794Z,14.60
2022-10-05T22:07:59.480Z,14.50
2022-10-05T22:12:06.140Z,14.50
2022-10-05T22:16:13.936Z,14.40
2022-10-05T22:20:21.808Z,14.50
2022-10-05T22:24:28.451Z,14.50
2022-10-05T22:28:35.953Z,14.50
2022-10-05T22:32:43.440Z,14.50
2022-10-05T22:36:50.736Z,14.50
2022-10-05T22:40:57.860Z,14.50
2022-10-05T22:45:06.292Z,14.50
2022-10-05T22:49:13.155Z,14.40
2022-10-05T22:53:19.911Z,14.40
2022-10-05T22:57:26.663Z,14.30
2022-10-05T23:01:33.379Z,14.30
2022-10-05T23:05:40.122Z,14.30
2022-10-05T23:09:46.796Z,14.30
2022-10-05T23:13:58.582Z,14.20
2022-10-05T23:18:05.254Z,14.20
2022-10-05T23:22:11.913Z,14.20
2022-10-05T23:26:21.522Z,14.20
2022-10-05T23:30:28.517Z,14.10
2022-10-05T23:34:35.325Z,14.10
2022-10-05T23:38:42.085Z,14.10
2022-10-05T23:42:48.809Z,14.00
2022-10-05T23:46:55.475Z,14.00
2022-10-05T23:51:02.120Z,14.00
2022-10-05T23:55:09.178Z,14.00
2022-10-05T23:59:15.835Z,14.00
